Ana Sayfa
METAR-TAF:

METAR-TAF

Havaalanları :

Wings Field

Philadelphia / Blue Bell, Pensilvanya, Amerika Birleşik Devletleri

Enlem: 40-08-15N, Boylam: 075-15-54W, yükseklik: 92 m

Güncel hava durumu gözlemi

Rapor saat 04:35 UTC de 22 dakika önce yapıldı.
Rüzgar güneydan 6 kt
Sıcaklık 8°C
Nem 71%
Basınç 1014 hPa
Görüş mesafesi: 16.1 km
9500 ft yükseklikte parçalı bulutlu

METAR: KLOM 250435Z AUTO 18006KT 10SM SCT095 08/03 A2993 RMK AO2 T00830032

Saat: 23:57 (04:57 UTC)


TAF: eksik

4.000'den fazla havaalanı için hava durumu gözlemleri ve tahminleri (METAR ve TAF raporları).

Kullanılabilir istasyonlar harita üzerinde sarı ve kırmızı noktalarla gösterilir.

İstasyonun adını görmek için fareyi noktanın üzerinde gezdirin.

Sonrasında hava gözlem ve tahminlerini görmek için tıklayın.

Haritayı değiştirmek için: yaklaştırmak için siyah artı işaretli yeşil düğmeye ve uzaklaştırmak için de eksi işaretli düğmeye hızla tıklayın; bitişik haritalar için yeşil okları kullanın.


METAR-TAF: